createdAt,value
2022-08-21T00:00:59.701Z,13.63
2022-08-21T00:03:28.180Z,7.50
2022-08-21T00:05:58.237Z,5.50
2022-08-21T00:08:26.715Z,13.07
2022-08-21T00:10:55.354Z,9.37
2022-08-21T00:13:24.213Z,7.20
2022-08-21T00:15:53.041Z,9.17
2022-08-21T00:18:23.234Z,14.67
2022-08-21T00:20:52.192Z,9.83
2022-08-21T00:23:24.422Z,8.23
2022-08-21T00:25:53.069Z,7.80
2022-08-21T00:28:21.726Z,10.30
2022-08-21T00:30:50.274Z,6.10
2022-08-21T00:33:18.646Z,8.43
2022-08-21T00:35:47.185Z,7.03
2022-08-21T00:38:15.963Z,8.70
2022-08-21T00:40:48.777Z,10.00
2022-08-21T00:43:20.222Z,12.60
2022-08-21T00:45:49.221Z,6.70
2022-08-21T00:48:17.938Z,8.00
2022-08-21T00:50:54.985Z,15.30
2022-08-21T00:53:24.092Z,14.23
2022-08-21T00:55:54.941Z,8.63
2022-08-21T00:58:26.685Z,10.00
2022-08-21T01:00:59.249Z,8.33
2022-08-21T01:03:28.110Z,7.67
2022-08-21T01:05:56.876Z,5.83
2022-08-21T01:08:26.476Z,5.80
2022-08-21T01:10:57.051Z,11.03
2022-08-21T01:13:29.223Z,12.27
2022-08-21T01:16:00.843Z,7.63
2022-08-21T01:18:31.851Z,7.60
2022-08-21T01:21:08.347Z,12.20
2022-08-21T01:23:38.564Z,8.27
2022-08-21T01:26:08.579Z,14.13
2022-08-21T01:28:44.538Z,7.83
2022-08-21T01:31:16.045Z,9.37
2022-08-21T01:33:45.963Z,11.03
2022-08-21T01:36:16.261Z,8.70
2022-08-21T01:38:48.251Z,9.53
2022-08-21T01:41:17.354Z,8.10
2022-08-21T01:43:46.428Z,7.87
2022-08-21T01:46:15.191Z,15.47
2022-08-21T01:48:44.623Z,7.57
2022-08-21T01:51:15.885Z,7.50
2022-08-21T01:53:44.533Z,13.17
2022-08-21T01:56:15.337Z,11.60
2022-08-21T01:58:45.730Z,8.47
2022-08-21T02:01:15.213Z,10.57
2022-08-21T02:03:44.405Z,10.60
2022-08-21T02:06:19.176Z,6.57
2022-08-21T02:08:48.052Z,7.90
2022-08-21T02:11:17.092Z,10.03
2022-08-21T02:13:45.677Z,9.33
2022-08-21T02:16:19.156Z,11.53
2022-08-21T02:18:50.789Z,13.67
2022-08-21T02:21:20.935Z,15.17
2022-08-21T02:23:49.493Z,8.43
2022-08-21T02:26:18.151Z,10.27
2022-08-21T02:28:46.731Z,14.30
2022-08-21T02:31:15.331Z,10.40
2022-08-21T02:33:44.054Z,10.07
2022-08-21T02:36:14.360Z,11.57
2022-08-21T02:38:45.325Z,10.37
2022-08-21T02:41:17.467Z,6.40
2022-08-21T02:43:47.243Z,17.60
2022-08-21T02:46:18.452Z,15.50
2022-08-21T02:48:47.383Z,8.03
2022-08-21T02:51:23.507Z,9.53
2022-08-21T02:53:54.060Z,5.10
2022-08-21T02:56:23.633Z,12.07
2022-08-21T02:58:54.299Z,8.27
2022-08-21T03:01:24.091Z,9.47
2022-08-21T03:03:53.259Z,17.50
2022-08-21T03:06:23.980Z,15.77
2022-08-21T03:08:53.889Z,9.83
2022-08-21T03:11:22.818Z,11.03
2022-08-21T03:13:51.343Z,9.40
2022-08-21T03:16:21.890Z,10.23
2022-08-21T03:18:50.409Z,9.40
2022-08-21T03:21:20.036Z,10.47
2022-08-21T03:23:48.472Z,10.93
2022-08-21T03:26:18.765Z,14.07
2022-08-21T03:28:48.331Z,14.43
2022-08-21T03:31:18.876Z,13.30
2022-08-21T03:33:47.343Z,12.57
2022-08-21T03:36:15.752Z,10.43
2022-08-21T03:38:44.263Z,11.30
2022-08-21T03:41:12.768Z,8.73
2022-08-21T03:43:42.685Z,6.70
2022-08-21T03:46:12.083Z,12.27
2022-08-21T03:48:41.997Z,10.80
2022-08-21T03:51:10.571Z,15.23
2022-08-21T03:53:39.390Z,15.13
2022-08-21T03:56:08.841Z,9.83
2022-08-21T03:58:37.339Z,14.07
2022-08-21T04:01:08.459Z,12.10
2022-08-21T04:03:38.883Z,13.87
2022-08-21T04:06:08.568Z,11.40
2022-08-21T04:08:37.708Z,10.23
2022-08-21T04:11:07.751Z,9.47
2022-08-21T04:13:44.728Z,14.43
2022-08-21T04:16:16.040Z,13.67
2022-08-21T04:18:44.924Z,17.67
2022-08-21T04:21:14.013Z,10.17
2022-08-21T04:23:42.512Z,10.47
2022-08-21T04:26:11.266Z,10.97
2022-08-21T04:28:40.150Z,11.10
2022-08-21T04:31:08.890Z,13.30
2022-08-21T04:33:38.849Z,17.50
2022-08-21T04:36:07.949Z,14.83
2022-08-21T04:38:37.658Z,17.33
2022-08-21T04:41:07.697Z,17.17
2022-08-21T04:43:36.401Z,16.20
2022-08-21T04:46:05.086Z,14.00
2022-08-21T04:48:34.579Z,14.57
2022-08-21T04:51:08.482Z,16.53
2022-08-21T04:53:41.231Z,15.87
2022-08-21T04:56:12.337Z,15.03
2022-08-21T04:58:43.565Z,15.37
2022-08-21T05:01:18.108Z,17.03
2022-08-21T05:03:48.162Z,19.23
2022-08-21T05:06:18.964Z,17.20
2022-08-21T05:08:51.171Z,18.10
2022-08-21T05:11:31.501Z,14.77
2022-08-21T05:14:00.425Z,14.90
2022-08-21T05:16:36.821Z,18.87
2022-08-21T05:19:06.778Z,13.73
2022-08-21T05:21:38.484Z,18.20
2022-08-21T05:24:07.172Z,15.67
2022-08-21T05:26:45.228Z,16.57
2022-08-21T05:29:16.650Z,14.47
2022-08-21T05:31:45.710Z,15.93
2022-08-21T05:34:16.219Z,19.67
2022-08-21T05:36:47.438Z,17.63
2022-08-21T05:39:16.316Z,17.80
2022-08-21T05:41:45.248Z,15.53
2022-08-21T05:44:13.938Z,16.13
2022-08-21T05:46:42.409Z,16.40
2022-08-21T05:49:11.546Z,17.83
2022-08-21T05:51:42.159Z,17.30
2022-08-21T05:54:12.180Z,12.67
2022-08-21T05:56:40.745Z,20.67
2022-08-21T05:59:09.326Z,19.50
2022-08-21T06:01:38.518Z,15.53
2022-08-21T06:04:08.230Z,15.43
2022-08-21T06:06:37.366Z,15.67
2022-08-21T06:09:07.366Z,13.30
2022-08-21T06:11:37.281Z,15.47
2022-08-21T06:14:07.505Z,16.87
2022-08-21T06:16:36.061Z,14.43
2022-08-21T06:19:04.616Z,17.63
2022-08-21T06:21:33.330Z,10.07
2022-08-21T06:24:01.934Z,14.37
2022-08-21T06:26:30.558Z,12.70
2022-08-21T06:29:00.429Z,18.67
2022-08-21T06:31:30.796Z,11.17
2022-08-21T06:33:59.646Z,16.67
2022-08-21T06:36:28.427Z,10.10
2022-08-21T06:38:57.862Z,12.47
2022-08-21T06:41:27.223Z,10.43
2022-08-21T06:43:56.717Z,12.20
2022-08-21T06:46:31.776Z,12.60
2022-08-21T06:49:00.514Z,10.50
2022-08-21T06:51:29.703Z,16.47
2022-08-21T06:53:59.451Z,11.30
2022-08-21T06:56:28.325Z,12.23
2022-08-21T06:58:57.660Z,15.23
2022-08-21T07:01:28.068Z,15.50
2022-08-21T07:03:58.385Z,12.87
2022-08-21T07:06:27.104Z,10.13
2022-08-21T07:08:58.906Z,12.80
2022-08-21T07:11:28.060Z,13.20
2022-08-21T07:13:57.715Z,11.33
2022-08-21T07:16:26.866Z,11.20
2022-08-21T07:18:55.458Z,15.40
2022-08-21T07:21:26.309Z,11.63
2022-08-21T07:23:55.441Z,11.27
2022-08-21T07:26:26.288Z,17.23
2022-08-21T07:28:55.493Z,7.93
2022-08-21T07:31:25.917Z,15.20
2022-08-21T07:33:56.483Z,10.00
2022-08-21T07:36:27.261Z,8.53
2022-08-21T07:38:55.927Z,15.17
2022-08-21T07:41:30.486Z,12.67
2022-08-21T07:43:59.502Z,13.50
2022-08-21T07:46:28.711Z,11.77
2022-08-21T07:48:58.354Z,8.90
2022-08-21T07:51:30.234Z,15.20
2022-08-21T07:54:00.327Z,12.63
2022-08-21T07:56:30.249Z,9.63
2022-08-21T07:58:59.198Z,12.60
2022-08-21T08:01:28.287Z,12.37
2022-08-21T08:03:57.378Z,11.07
2022-08-21T08:06:27.894Z,11.73
2022-08-21T08:08:56.770Z,7.23
2022-08-21T08:11:26.030Z,10.20
2022-08-21T08:13:54.891Z,9.47
2022-08-21T08:16:23.565Z,8.93
2022-08-21T08:18:53.010Z,15.57
2022-08-21T08:21:22.024Z,12.60
2022-08-21T08:23:52.410Z,10.50
2022-08-21T08:26:21.125Z,9.63
2022-08-21T08:28:50.296Z,12.83
2022-08-21T08:31:18.970Z,10.20
2022-08-21T08:33:47.475Z,10.77
2022-08-21T08:36:18.472Z,12.97
2022-08-21T08:38:49.542Z,14.00
2022-08-21T08:41:30.632Z,10.80
2022-08-21T08:44:05.082Z,13.07
2022-08-21T08:46:38.749Z,11.03
2022-08-21T08:49:12.986Z,10.33
2022-08-21T08:51:52.916Z,9.57
2022-08-21T08:54:28.056Z,10.83
2022-08-21T08:56:58.342Z,7.17
2022-08-21T08:59:37.019Z,12.83
2022-08-21T09:02:06.609Z,11.20
2022-08-21T09:04:35.201Z,7.93
2022-08-21T09:07:14.976Z,9.60
2022-08-21T09:09:58.005Z,10.47
2022-08-21T09:12:37.853Z,7.27
2022-08-21T09:15:14.787Z,8.60
2022-08-21T09:18:02.624Z,10.63
2022-08-21T09:20:41.902Z,7.80
2022-08-21T09:23:24.622Z,7.83
2022-08-21T09:26:07.115Z,6.93
2022-08-21T09:28:38.090Z,6.43
2022-08-21T09:31:10.024Z,9.87
2022-08-21T09:33:40.027Z,10.27
2022-08-21T09:36:09.292Z,8.57
2022-08-21T09:38:39.953Z,9.00
2022-08-21T09:41:10.650Z,9.37
2022-08-21T09:43:40.634Z,7.40
2022-08-21T09:46:14.247Z,8.10
2022-08-21T09:48:47.425Z,6.57
2022-08-21T09:51:18.916Z,10.67
2022-08-21T09:53:53.416Z,7.33
2022-08-21T09:56:48.855Z,5.57
2022-08-21T09:59:26.548Z,5.93
2022-08-21T10:01:56.249Z,8.87
2022-08-21T10:04:30.847Z,7.83
2022-08-21T10:07:09.168Z,9.30
2022-08-21T10:09:38.586Z,13.67
2022-08-21T10:12:17.478Z,6.23
2022-08-21T10:14:55.516Z,4.47
2022-08-21T10:17:34.496Z,5.63
2022-08-21T10:20:09.083Z,5.70
2022-08-21T10:22:46.344Z,8.60
2022-08-21T10:25:22.023Z,7.00
2022-08-21T10:28:02.594Z,5.87
2022-08-21T10:30:41.008Z,6.23
2022-08-21T10:33:22.489Z,3.83
2022-08-21T10:35:59.844Z,7.83
2022-08-21T10:39:17.748Z,7.73
2022-08-21T10:42:08.182Z,7.83
2022-08-21T10:44:46.699Z,8.27
2022-08-21T10:47:22.756Z,6.97
2022-08-21T10:50:00.477Z,4.80
2022-08-21T10:52:48.992Z,6.20
2022-08-21T10:55:20.747Z,7.77
2022-08-21T10:57:57.006Z,9.07
2022-08-21T11:00:32.218Z,7.63
2022-08-21T11:03:07.534Z,7.83
2022-08-21T11:05:40.913Z,5.10
2022-08-21T11:08:14.762Z,6.33
2022-08-21T11:10:57.565Z,8.67
2022-08-21T11:13:38.293Z,8.30
2022-08-21T11:16:13.466Z,8.00
2022-08-21T11:18:48.598Z,3.17
2022-08-21T11:21:34.071Z,7.10
2022-08-21T11:24:13.129Z,4.27
2022-08-21T11:26:45.822Z,5.00
2022-08-21T11:29:25.877Z,7.40
2022-08-21T11:32:14.797Z,7.90
2022-08-21T11:34:59.013Z,6.20
2022-08-21T11:37:51.399Z,4.83
2022-08-21T11:40:40.136Z,8.03
2022-08-21T11:43:18.567Z,5.33
2022-08-21T11:45:50.095Z,12.80
2022-08-21T11:48:29.068Z,6.27
2022-08-21T11:51:01.210Z,7.27
2022-08-21T11:53:39.258Z,6.37
2022-08-21T11:56:14.288Z,8.13
2022-08-21T11:58:46.905Z,6.60
2022-08-21T12:01:21.603Z,6.13
2022-08-21T12:03:57.370Z,6.20
2022-08-21T12:06:38.533Z,5.27
2022-08-21T12:09:09.863Z,6.77
2022-08-21T12:11:49.741Z,9.07
2022-08-21T12:14:20.850Z,9.57
2022-08-21T12:16:51.207Z,6.43
2022-08-21T12:19:35.919Z,8.23
2022-08-21T12:22:14.335Z,8.80
2022-08-21T12:24:46.954Z,7.68
2022-08-21T12:27:26.628Z,5.97
2022-08-21T12:29:58.821Z,8.82
2022-08-21T12:32:30.652Z,7.45
2022-08-21T12:35:07.938Z,7.00
2022-08-21T12:37:48.582Z,5.57
2022-08-21T12:40:25.681Z,6.93
2022-08-21T12:42:59.132Z,7.80
2022-08-21T12:45:33.072Z,8.95
2022-08-21T12:48:06.810Z,5.00
2022-08-21T12:50:42.403Z,4.80
2022-08-21T12:53:27.590Z,6.38
2022-08-21T12:56:01.253Z,4.18
2022-08-21T12:58:31.202Z,4.38
2022-08-21T13:01:04.954Z,5.25
2022-08-21T13:03:37.534Z,4.72
2022-08-21T13:06:08.040Z,4.07
2022-08-21T13:08:41.047Z,6.05
2022-08-21T13:11:13.447Z,4.25
2022-08-21T13:13:49.968Z,7.53
2022-08-21T13:16:24.806Z,3.92
2022-08-21T13:18:58.195Z,6.10
2022-08-21T13:21:32.350Z,4.35
2022-08-21T13:24:41.203Z,4.72
2022-08-21T13:27:20.203Z,7.03
2022-08-21T13:29:53.395Z,3.80
2022-08-21T13:32:28.740Z,4.55
2022-08-21T13:34:58.857Z,7.80
2022-08-21T13:37:30.062Z,4.70
2022-08-21T13:40:00.381Z,7.90
2022-08-21T13:42:30.484Z,4.70
2022-08-21T13:44:59.297Z,6.00
2022-08-21T13:47:28.643Z,6.20
2022-08-21T13:49:59.362Z,5.13
2022-08-21T13:52:29.486Z,5.43
2022-08-21T13:55:01.843Z,6.60
2022-08-21T13:57:33.586Z,3.55
2022-08-21T14:00:19.379Z,3.90
2022-08-21T14:02:50.624Z,7.88
2022-08-21T14:05:23.495Z,5.68
2022-08-21T14:08:00.414Z,5.22
2022-08-21T14:10:30.810Z,5.22
2022-08-21T14:13:03.366Z,6.18
2022-08-21T14:15:34.552Z,6.07
2022-08-21T14:18:12.037Z,5.18
2022-08-21T14:20:40.573Z,5.65
2022-08-21T14:23:09.069Z,6.05
2022-08-21T14:25:44.791Z,7.45
2022-08-21T14:28:27.893Z,4.15
2022-08-21T14:30:58.939Z,4.82
2022-08-21T14:33:29.938Z,6.65
2022-08-21T14:35:58.893Z,7.35
2022-08-21T14:38:30.131Z,6.88
2022-08-21T14:41:02.735Z,4.43
2022-08-21T14:43:31.324Z,4.80
2022-08-21T14:46:01.752Z,6.93
2022-08-21T14:48:30.280Z,9.05
2022-08-21T14:51:00.757Z,7.45
2022-08-21T14:53:29.807Z,3.17
2022-08-21T14:56:08.810Z,5.60
2022-08-21T14:58:39.915Z,6.32
2022-08-21T15:01:09.833Z,6.18
2022-08-21T15:03:39.341Z,7.13
2022-08-21T15:06:10.310Z,6.25
2022-08-21T15:08:39.239Z,6.57
2022-08-21T15:11:14.456Z,4.70
2022-08-21T15:13:45.576Z,6.53
2022-08-21T15:16:14.299Z,7.75
2022-08-21T15:18:44.055Z,4.78
2022-08-21T15:21:12.529Z,9.43
2022-08-21T15:23:43.757Z,6.13
2022-08-21T15:26:14.219Z,5.55
2022-08-21T15:28:42.769Z,5.80
2022-08-21T15:31:11.233Z,6.70
2022-08-21T15:33:39.681Z,4.53
2022-08-21T15:36:09.216Z,5.30
2022-08-21T15:38:37.870Z,4.20
2022-08-21T15:41:07.974Z,4.93
2022-08-21T15:43:44.876Z,5.17
2022-08-21T15:46:16.842Z,6.53
2022-08-21T15:48:47.257Z,7.32
2022-08-21T15:51:18.659Z,7.72
2022-08-21T15:53:47.712Z,3.95
2022-08-21T15:56:23.180Z,7.22
2022-08-21T15:58:55.076Z,8.35
2022-08-21T16:01:24.074Z,7.77
2022-08-21T16:03:56.334Z,6.03
2022-08-21T16:06:38.475Z,6.93
2022-08-21T16:09:13.507Z,5.53
2022-08-21T16:11:42.380Z,5.33
2022-08-21T16:14:13.687Z,8.10
2022-08-21T16:16:42.803Z,6.93
2022-08-21T16:19:13.603Z,4.67
2022-08-21T16:21:42.429Z,10.83
2022-08-21T16:24:11.074Z,7.33
2022-08-21T16:26:39.608Z,6.47
2022-08-21T16:29:09.514Z,7.40
2022-08-21T16:31:41.805Z,9.60
2022-08-21T16:34:17.464Z,8.17
2022-08-21T16:36:47.216Z,6.00
2022-08-21T16:39:15.826Z,7.03
2022-08-21T16:41:44.534Z,5.37
2022-08-21T16:44:12.902Z,7.23
2022-08-21T16:46:43.211Z,9.77
2022-08-21T16:49:11.940Z,8.30
2022-08-21T16:51:40.531Z,10.50
2022-08-21T16:54:09.323Z,9.07
2022-08-21T16:56:40.023Z,11.27
2022-08-21T16:59:09.361Z,11.40
2022-08-21T17:01:38.186Z,9.30
2022-08-21T17:04:08.188Z,5.87
2022-08-21T17:06:37.045Z,6.87
2022-08-21T17:09:05.668Z,4.63
2022-08-21T17:11:38.484Z,8.37
2022-08-21T17:14:10.033Z,6.10
2022-08-21T17:16:40.131Z,10.50
2022-08-21T17:19:10.178Z,8.83
2022-08-21T17:21:38.713Z,5.93
2022-08-21T17:24:07.685Z,10.60
2022-08-21T17:26:37.033Z,5.80
2022-08-21T17:29:10.122Z,5.40
2022-08-21T17:31:41.168Z,10.90
2022-08-21T17:34:11.637Z,10.03
2022-08-21T17:36:40.213Z,9.87
2022-08-21T17:39:10.039Z,10.87
2022-08-21T17:41:38.696Z,6.33
2022-08-21T17:44:11.100Z,8.50
2022-08-21T17:46:41.167Z,9.13
2022-08-21T17:49:11.900Z,5.07
2022-08-21T17:51:40.320Z,11.27
2022-08-21T17:54:08.821Z,8.83
2022-08-21T17:56:40.781Z,8.27
2022-08-21T17:59:10.541Z,13.97
2022-08-21T18:01:42.712Z,9.50
2022-08-21T18:04:13.227Z,9.13
2022-08-21T18:06:43.243Z,10.13
2022-08-21T18:09:13.091Z,11.27
2022-08-21T18:11:43.621Z,8.80
2022-08-21T18:14:12.883Z,8.43
2022-08-21T18:16:41.823Z,7.77
2022-08-21T18:19:16.233Z,10.33
2022-08-21T18:21:45.195Z,6.20
2022-08-21T18:24:14.022Z,9.87
2022-08-21T18:26:45.030Z,9.70
2022-08-21T18:29:47.326Z,13.77
2022-08-21T18:32:41.435Z,14.97
2022-08-21T18:35:13.139Z,6.70
2022-08-21T18:37:41.696Z,9.73
2022-08-21T18:40:12.023Z,8.53
2022-08-21T18:42:47.820Z,18.70
2022-08-21T18:45:29.011Z,9.17
2022-08-21T18:48:00.007Z,7.93
2022-08-21T18:50:31.492Z,14.47
2022-08-21T18:53:00.407Z,12.30
2022-08-21T18:55:29.885Z,10.33
2022-08-21T18:57:59.712Z,11.40
2022-08-21T19:00:33.477Z,9.00
2022-08-21T19:03:02.646Z,7.87
2022-08-21T19:05:36.479Z,11.27
2022-08-21T19:08:06.151Z,12.50
2022-08-21T19:10:36.338Z,6.83
2022-08-21T19:13:07.263Z,11.17
2022-08-21T19:15:41.988Z,9.77
2022-08-21T19:18:13.857Z,8.00
2022-08-21T19:20:47.438Z,7.07
2022-08-21T19:23:18.324Z,9.10
2022-08-21T19:25:51.831Z,10.73
2022-08-21T19:28:27.208Z,16.47
2022-08-21T19:31:00.684Z,10.07
2022-08-21T19:33:35.692Z,10.03
2022-08-21T19:36:07.689Z,6.90
2022-08-21T19:38:38.614Z,10.80
2022-08-21T19:41:10.605Z,7.13
2022-08-21T19:43:44.372Z,9.73
2022-08-21T19:46:14.449Z,6.90
2022-08-21T19:48:46.766Z,7.60
2022-08-21T19:51:16.940Z,5.60
2022-08-21T19:53:46.484Z,9.90
2022-08-21T19:56:19.894Z,11.70
2022-08-21T19:58:49.989Z,7.80
2022-08-21T20:01:20.318Z,6.00
2022-08-21T20:03:54.097Z,7.50
2022-08-21T20:06:25.352Z,9.27
2022-08-21T20:08:55.790Z,8.30
2022-08-21T20:11:28.767Z,14.17
2022-08-21T20:14:00.973Z,6.57
2022-08-21T20:16:30.428Z,6.87
2022-08-21T20:18:58.987Z,11.77
2022-08-21T20:21:29.033Z,8.93
2022-08-21T20:23:58.047Z,11.30
2022-08-21T20:26:29.700Z,11.50
2022-08-21T20:28:58.681Z,5.77
2022-08-21T20:31:28.422Z,6.73
2022-08-21T20:33:57.816Z,9.70
2022-08-21T20:36:28.637Z,5.43
2022-08-21T20:38:57.584Z,5.87
2022-08-21T20:41:31.040Z,5.83
2022-08-21T20:44:01.352Z,8.77
2022-08-21T20:46:33.180Z,12.60
2022-08-21T20:49:03.328Z,8.17
2022-08-21T20:51:39.501Z,6.93
2022-08-21T20:54:18.269Z,6.70
2022-08-21T20:56:52.599Z,13.63
2022-08-21T20:59:42.932Z,13.77
2022-08-21T21:02:26.263Z,9.93
2022-08-21T21:05:00.370Z,15.10
2022-08-21T21:07:38.248Z,10.70
2022-08-21T21:10:12.601Z,10.87
2022-08-21T21:12:52.762Z,6.60
2022-08-21T21:15:30.363Z,7.10
2022-08-21T21:18:06.494Z,9.50
2022-08-21T21:20:41.007Z,15.77
2022-08-21T21:23:26.681Z,10.33
2022-08-21T21:26:01.697Z,14.43
2022-08-21T21:28:43.101Z,11.00
2022-08-21T21:31:12.788Z,11.83
2022-08-21T21:33:42.846Z,7.50
2022-08-21T21:36:29.666Z,7.10
2022-08-21T21:39:09.967Z,9.90
2022-08-21T21:41:46.663Z,10.20
2022-08-21T21:44:36.989Z,11.13
2022-08-21T21:47:16.513Z,6.50
2022-08-21T21:50:02.289Z,8.70
2022-08-21T21:52:42.668Z,10.60
2022-08-21T21:55:29.113Z,12.97
2022-08-21T21:58:20.624Z,13.93
2022-08-21T22:01:03.914Z,14.70
2022-08-21T22:03:40.262Z,12.17
2022-08-21T22:06:16.179Z,15.30
2022-08-21T22:08:50.705Z,11.07
2022-08-21T22:11:29.547Z,15.03
2022-08-21T22:14:06.274Z,11.17
2022-08-21T22:16:41.186Z,12.43
2022-08-21T22:19:23.577Z,10.40
2022-08-21T22:22:09.300Z,7.43
2022-08-21T22:24:43.098Z,11.17
2022-08-21T22:27:17.069Z,7.37
2022-08-21T22:29:49.522Z,9.67
2022-08-21T22:32:27.728Z,11.53
2022-08-21T22:35:05.358Z,10.10
2022-08-21T22:37:42.134Z,15.00
2022-08-21T22:40:15.760Z,8.43
2022-08-21T22:42:59.219Z,10.13
2022-08-21T22:45:31.100Z,13.93
2022-08-21T22:48:14.588Z,12.40
2022-08-21T22:50:58.386Z,15.10
2022-08-21T22:53:30.829Z,19.37
2022-08-21T22:56:01.665Z,14.20
2022-08-21T22:58:36.819Z,14.77
2022-08-21T23:01:09.756Z,16.60
2022-08-21T23:03:47.525Z,20.07
2022-08-21T23:06:27.867Z,17.53
2022-08-21T23:08:56.987Z,11.90
2022-08-21T23:11:40.905Z,16.07
2022-08-21T23:14:14.915Z,15.20
2022-08-21T23:16:52.084Z,11.87
2022-08-21T23:19:38.165Z,15.00
2022-08-21T23:22:21.177Z,8.37
2022-08-21T23:25:04.420Z,8.40
2022-08-21T23:27:45.303Z,8.30
2022-08-21T23:30:22.311Z,12.17
2022-08-21T23:33:14.787Z,9.87
2022-08-21T23:36:17.356Z,17.73
2022-08-21T23:39:05.306Z,7.57
2022-08-21T23:41:40.384Z,6.47
2022-08-21T23:44:25.600Z,11.77
2022-08-21T23:47:10.376Z,9.00
2022-08-21T23:49:48.699Z,14.80
2022-08-21T23:52:37.033Z,5.80
2022-08-21T23:55:19.882Z,10.80
2022-08-21T23:58:01.769Z,13.77
